RUK6958 EIKY-EGCC
Flight info
| Callsign | RUK6958 |
|---|---|
| Flight time | 0h 55m |
| Altitude | 35000 |
| Route | SHA3B SHA DCT BOFUM Q37 MALUD |
| Aircraft | B738/M-SDE3FGILRWY/SB1 |
Departure
| Time | 2026-05-07 19:16 |
|---|---|
| Airport | Kerry Airport (EIKY) |
Arrival
| Time | 2026-05-07 20:11 |
|---|---|
| Airport | Manchester Airport (EGCC) |
| Time | Latitude | Longitude | Altitude | Speed | Heading |
|---|---|---|---|---|---|
| 2026-05-07 18:45 | 52.18094 | -9.53632 | 100 ft | 0 kts | 105° |
| 2026-05-07 19:10 | 52.18082 | -9.53605 | 103 ft | 6 kts | 146° |
| 2026-05-07 19:10 | 52.18033 | -9.53608 | 101 ft | 8 kts | 200° |
| 2026-05-07 19:10 | 52.17975 | -9.53609 | 101 ft | 9 kts | 165° |
| 2026-05-07 19:10 | 52.17907 | -9.53571 | 102 ft | 11 kts | 160° |
| 2026-05-07 19:11 | 52.17856 | -9.53503 | 102 ft | 10 kts | 100° |
| 2026-05-07 19:11 | 52.17881 | -9.53381 | 101 ft | 16 kts | 71° |
| 2026-05-07 19:11 | 52.17929 | -9.53148 | 103 ft | 27 kts | 71° |
| 2026-05-07 19:11 | 52.17993 | -9.52847 | 103 ft | 29 kts | 71° |
| 2026-05-07 19:12 | 52.18055 | -9.52550 | 102 ft | 27 kts | 71° |
| 2026-05-07 19:12 | 52.18114 | -9.52269 | 99 ft | 26 kts | 71° |
| 2026-05-07 19:12 | 52.18175 | -9.51978 | 103 ft | 27 kts | 71° |
| 2026-05-07 19:12 | 52.18233 | -9.51700 | 102 ft | 25 kts | 71° |
| 2026-05-07 19:13 | 52.18290 | -9.51429 | 102 ft | 26 kts | 71° |
| 2026-05-07 19:13 | 52.18343 | -9.51176 | 104 ft | 18 kts | 71° |
| 2026-05-07 19:13 | 52.18374 | -9.51099 | 103 ft | 7 kts | 47° |
| 2026-05-07 19:13 | 52.18392 | -9.51037 | 102 ft | 4 kts | 94° |
| 2026-05-07 19:14 | 52.18373 | -9.51029 | 103 ft | 3 kts | 210° |
| 2026-05-07 19:14 | 52.18366 | -9.51057 | 103 ft | 3 kts | 251° |
| 2026-05-07 19:14 | 52.18365 | -9.51061 | 102 ft | 0 kts | 250° |
| 2026-05-07 19:15 | 52.18362 | -9.51075 | 102 ft | 7 kts | 250° |
| 2026-05-07 19:15 | 52.18269 | -9.51518 | 104 ft | 81 kts | 251° |
| 2026-05-07 19:15 | 52.18004 | -9.52787 | 103 ft | 149 kts | 251° |
| 2026-05-07 19:16 | 52.17659 | -9.54522 | 646 ft | 164 kts | 252° |
| 2026-05-07 19:16 | 52.17354 | -9.56204 | 1805 ft | 155 kts | 251° |
| 2026-05-07 19:16 | 52.17014 | -9.58046 | 2288 ft | 186 kts | 252° |
| 2026-05-07 19:16 | 52.16609 | -9.60212 | 2680 ft | 210 kts | 252° |
| 2026-05-07 19:17 | 52.16166 | -9.62570 | 3349 ft | 219 kts | 251° |
| 2026-05-07 19:17 | 52.15708 | -9.64990 | 3871 ft | 235 kts | 252° |
| 2026-05-07 19:17 | 52.15265 | -9.67553 | 4243 ft | 236 kts | 262° |
| 2026-05-07 19:17 | 52.15599 | -9.70211 | 4959 ft | 255 kts | 299° |
| 2026-05-07 19:18 | 52.16987 | -9.72138 | 5801 ft | 271 kts | 336° |
| 2026-05-07 19:18 | 52.18870 | -9.72421 | 6730 ft | 281 kts | 11° |
| 2026-05-07 19:18 | 52.20575 | -9.70966 | 7613 ft | 287 kts | 44° |
| 2026-05-07 19:18 | 52.21859 | -9.68440 | 8551 ft | 292 kts | 52° |
| 2026-05-07 19:19 | 52.23071 | -9.65761 | 9460 ft | 296 kts | 56° |
| 2026-05-07 19:19 | 52.24242 | -9.62967 | 10299 ft | 302 kts | 54° |
| 2026-05-07 19:19 | 52.25550 | -9.60111 | 10612 ft | 327 kts | 51° |
| 2026-05-07 19:19 | 52.27055 | -9.57198 | 11160 ft | 341 kts | 48° |
| 2026-05-07 19:20 | 52.28680 | -9.54335 | 11977 ft | 346 kts | 45° |
| 2026-05-07 19:20 | 52.30386 | -9.51525 | 12820 ft | 350 kts | 44° |
| 2026-05-07 19:20 | 52.32150 | -9.48746 | 13628 ft | 356 kts | 43° |
| 2026-05-07 19:20 | 52.33971 | -9.45955 | 14372 ft | 361 kts | 42° |
| 2026-05-07 19:21 | 52.35830 | -9.43149 | 15071 ft | 367 kts | 42° |
| 2026-05-07 19:21 | 52.37728 | -9.40304 | 15779 ft | 372 kts | 42° |
| 2026-05-07 19:21 | 52.39652 | -9.37429 | 16555 ft | 376 kts | 41° |
| 2026-05-07 19:21 | 52.41598 | -9.34524 | 17255 ft | 382 kts | 41° |
| 2026-05-07 19:22 | 52.43576 | -9.31568 | 17977 ft | 387 kts | 41° |
| 2026-05-07 19:22 | 52.45574 | -9.28556 | 18620 ft | 392 kts | 44° |
| 2026-05-07 19:22 | 52.47318 | -9.25105 | 19258 ft | 396 kts | 58° |
| 2026-05-07 19:22 | 52.48630 | -9.21136 | 19951 ft | 397 kts | 64° |
| 2026-05-07 19:23 | 52.49860 | -9.17044 | 20609 ft | 401 kts | 65° |
| 2026-05-07 19:23 | 52.51082 | -9.12922 | 21236 ft | 404 kts | 65° |
| 2026-05-07 19:23 | 52.52320 | -9.08751 | 21856 ft | 408 kts | 65° |
| 2026-05-07 19:23 | 52.53577 | -9.04540 | 22478 ft | 412 kts | 65° |
| 2026-05-07 19:24 | 52.54849 | -9.00302 | 23079 ft | 415 kts | 65° |
| 2026-05-07 19:24 | 52.56132 | -8.96040 | 23679 ft | 418 kts | 65° |
| 2026-05-07 19:24 | 52.57426 | -8.91752 | 24185 ft | 421 kts | 65° |
| 2026-05-07 19:24 | 52.58732 | -8.87424 | 24697 ft | 423 kts | 64° |
| 2026-05-07 19:25 | 52.60043 | -8.83079 | 25204 ft | 426 kts | 64° |
| 2026-05-07 19:25 | 52.61362 | -8.78703 | 25696 ft | 428 kts | 64° |
| 2026-05-07 19:25 | 52.62670 | -8.74354 | 26175 ft | 431 kts | 64° |
| 2026-05-07 19:25 | 52.64001 | -8.69924 | 26638 ft | 434 kts | 64° |
| 2026-05-07 19:26 | 52.65342 | -8.65450 | 27099 ft | 436 kts | 64° |
| 2026-05-07 19:26 | 52.66687 | -8.60951 | 27550 ft | 439 kts | 64° |
| 2026-05-07 19:26 | 52.68036 | -8.56431 | 27997 ft | 442 kts | 64° |
| 2026-05-07 19:26 | 52.69397 | -8.51864 | 28471 ft | 443 kts | 64° |
| 2026-05-07 19:27 | 52.70773 | -8.47237 | 28958 ft | 445 kts | 64° |
| 2026-05-07 19:27 | 52.72141 | -8.42626 | 29282 ft | 450 kts | 64° |
| 2026-05-07 19:27 | 52.73500 | -8.38039 | 29644 ft | 453 kts | 64° |
| 2026-05-07 19:27 | 52.74905 | -8.33288 | 30080 ft | 455 kts | 64° |
| 2026-05-07 19:28 | 52.76270 | -8.28661 | 30509 ft | 454 kts | 64° |
| 2026-05-07 19:28 | 52.77650 | -8.23973 | 30973 ft | 453 kts | 64° |
| 2026-05-07 19:28 | 52.79022 | -8.19307 | 31417 ft | 452 kts | 64° |
| 2026-05-07 19:28 | 52.80394 | -8.14627 | 31811 ft | 452 kts | 64° |
| 2026-05-07 19:29 | 52.81765 | -8.09946 | 32203 ft | 452 kts | 65° |
| 2026-05-07 19:29 | 52.83131 | -8.05269 | 32687 ft | 449 kts | 65° |
| 2026-05-07 19:29 | 52.84481 | -8.00639 | 33249 ft | 446 kts | 65° |
| 2026-05-07 19:29 | 52.85825 | -7.96023 | 33637 ft | 446 kts | 65° |
| 2026-05-07 19:30 | 52.87174 | -7.91377 | 33951 ft | 448 kts | 65° |
| 2026-05-07 19:30 | 52.88521 | -7.86728 | 34244 ft | 448 kts | 65° |
| 2026-05-07 19:30 | 52.89867 | -7.82075 | 34556 ft | 448 kts | 65° |
| 2026-05-07 19:30 | 52.91211 | -7.77420 | 34861 ft | 448 kts | 65° |
| 2026-05-07 19:31 | 52.93914 | -7.68031 | 34959 ft | 455 kts | 65° |
| 2026-05-07 19:31 | 52.96614 | -7.58615 | 34935 ft | 447 kts | 65° |
| 2026-05-07 19:32 | 52.99265 | -7.49333 | 34957 ft | 445 kts | 65° |
| 2026-05-07 19:32 | 53.01915 | -7.40016 | 34960 ft | 447 kts | 65° |
| 2026-05-07 19:33 | 53.04566 | -7.30657 | 34961 ft | 449 kts | 65° |
| 2026-05-07 19:33 | 53.07227 | -7.21226 | 34960 ft | 451 kts | 65° |
| 2026-05-07 19:34 | 53.09884 | -7.11772 | 34939 ft | 452 kts | 66° |
| 2026-05-07 19:34 | 53.12536 | -7.02298 | 34950 ft | 451 kts | 66° |
| 2026-05-07 19:35 | 53.15180 | -6.92814 | 34949 ft | 451 kts | 66° |
| 2026-05-07 19:35 | 53.17811 | -6.83335 | 34950 ft | 450 kts | 66° |
| 2026-05-07 19:36 | 53.20430 | -6.73863 | 34950 ft | 449 kts | 66° |
| 2026-05-07 19:36 | 53.23035 | -6.64403 | 34938 ft | 448 kts | 66° |
| 2026-05-07 19:37 | 53.25624 | -6.54961 | 34938 ft | 447 kts | 66° |
| 2026-05-07 19:37 | 53.28205 | -6.45515 | 34938 ft | 447 kts | 67° |
| 2026-05-07 19:38 | 53.30776 | -6.36062 | 34942 ft | 446 kts | 67° |
| 2026-05-07 19:38 | 53.33338 | -6.26604 | 34939 ft | 447 kts | 67° |
| 2026-05-07 19:39 | 53.35877 | -6.17192 | 34931 ft | 447 kts | 67° |
| 2026-05-07 19:39 | 53.38014 | -6.09239 | 34936 ft | 447 kts | 67° |
| 2026-05-07 19:40 | 53.40974 | -5.98177 | 34945 ft | 448 kts | 67° |
| 2026-05-07 19:40 | 53.43517 | -5.88632 | 34950 ft | 449 kts | 68° |
| 2026-05-07 19:41 | 53.46057 | -5.79059 | 34960 ft | 449 kts | 68° |
| 2026-05-07 19:41 | 53.48591 | -5.69465 | 34967 ft | 450 kts | 68° |
| 2026-05-07 19:42 | 53.51123 | -5.59845 | 34968 ft | 450 kts | 68° |
| 2026-05-07 19:42 | 53.53239 | -5.49988 | 34971 ft | 447 kts | 81° |
| 2026-05-07 19:43 | 53.53650 | -5.44811 | 34681 ft | 448 kts | 91° |
| 2026-05-07 19:43 | 53.53587 | -5.39616 | 34236 ft | 443 kts | 96° |
| 2026-05-07 19:43 | 53.53476 | -5.36186 | 33857 ft | 443 kts | 96° |
| 2026-05-07 19:43 | 53.53298 | -5.31007 | 33227 ft | 444 kts | 96° |
| 2026-05-07 19:44 | 53.53142 | -5.25841 | 32641 ft | 443 kts | 96° |
| 2026-05-07 19:44 | 53.53009 | -5.20668 | 32038 ft | 443 kts | 95° |
| 2026-05-07 19:44 | 53.52885 | -5.15496 | 31429 ft | 443 kts | 95° |
| 2026-05-07 19:44 | 53.52740 | -5.10343 | 30982 ft | 439 kts | 96° |
| 2026-05-07 19:45 | 53.52574 | -5.05247 | 30525 ft | 435 kts | 96° |
| 2026-05-07 19:45 | 53.52402 | -5.00188 | 30111 ft | 432 kts | 96° |
| 2026-05-07 19:45 | 53.52232 | -4.95168 | 29624 ft | 428 kts | 96° |
| 2026-05-07 19:45 | 53.52066 | -4.90194 | 29183 ft | 423 kts | 96° |
| 2026-05-07 19:46 | 53.51901 | -4.85288 | 28743 ft | 419 kts | 96° |
| 2026-05-07 19:46 | 53.51736 | -4.80422 | 28289 ft | 415 kts | 96° |
| 2026-05-07 19:46 | 53.51573 | -4.75606 | 27860 ft | 411 kts | 96° |
| 2026-05-07 19:46 | 53.51409 | -4.70835 | 27417 ft | 408 kts | 96° |
| 2026-05-07 19:47 | 53.51245 | -4.66099 | 26990 ft | 404 kts | 96° |
| 2026-05-07 19:47 | 53.51081 | -4.61407 | 26564 ft | 401 kts | 96° |
| 2026-05-07 19:47 | 53.50916 | -4.56753 | 26144 ft | 398 kts | 96° |
| 2026-05-07 19:47 | 53.50750 | -4.52126 | 25733 ft | 396 kts | 96° |
| 2026-05-07 19:48 | 53.50583 | -4.47531 | 25318 ft | 393 kts | 96° |
| 2026-05-07 19:48 | 53.50416 | -4.42951 | 24904 ft | 391 kts | 96° |
| 2026-05-07 19:48 | 53.50247 | -4.38406 | 24494 ft | 389 kts | 96° |
| 2026-05-07 19:48 | 53.50078 | -4.33882 | 24088 ft | 387 kts | 96° |
| 2026-05-07 19:49 | 53.49908 | -4.29375 | 23680 ft | 386 kts | 96° |
| 2026-05-07 19:49 | 53.49736 | -4.24882 | 23191 ft | 385 kts | 96° |
| 2026-05-07 19:49 | 53.49564 | -4.20413 | 22749 ft | 383 kts | 96° |
| 2026-05-07 19:49 | 53.49392 | -4.15965 | 22321 ft | 380 kts | 96° |
| 2026-05-07 19:50 | 53.49219 | -4.11557 | 21913 ft | 377 kts | 96° |
| 2026-05-07 19:50 | 53.49048 | -4.07192 | 21528 ft | 374 kts | 96° |
| 2026-05-07 19:50 | 53.48876 | -4.02905 | 21125 ft | 371 kts | 96° |
| 2026-05-07 19:50 | 53.48700 | -3.98593 | 20728 ft | 369 kts | 97° |
| 2026-05-07 19:51 | 53.48297 | -3.94380 | 20323 ft | 363 kts | 109° |
| 2026-05-07 19:51 | 53.47511 | -3.90384 | 19949 ft | 359 kts | 112° |
| 2026-05-07 19:51 | 53.46673 | -3.86450 | 19547 ft | 357 kts | 112° |
| 2026-05-07 19:51 | 53.45837 | -3.82537 | 19174 ft | 356 kts | 112° |
| 2026-05-07 19:52 | 53.45012 | -3.78634 | 18784 ft | 354 kts | 112° |
| 2026-05-07 19:52 | 53.44197 | -3.74739 | 18409 ft | 353 kts | 112° |
| 2026-05-07 19:52 | 53.43394 | -3.70871 | 17991 ft | 351 kts | 112° |
| 2026-05-07 19:52 | 53.42591 | -3.67005 | 17573 ft | 349 kts | 112° |
| 2026-05-07 19:53 | 53.41792 | -3.63167 | 17172 ft | 347 kts | 112° |
| 2026-05-07 19:53 | 53.41130 | -3.59288 | 16752 ft | 348 kts | 101° |
| 2026-05-07 19:53 | 53.40910 | -3.55253 | 16384 ft | 349 kts | 96° |
| 2026-05-07 19:53 | 53.40777 | -3.51174 | 15949 ft | 351 kts | 95° |
| 2026-05-07 19:54 | 53.40647 | -3.47097 | 15538 ft | 350 kts | 95° |
| 2026-05-07 19:54 | 53.40501 | -3.43028 | 15119 ft | 349 kts | 96° |
| 2026-05-07 19:54 | 53.40341 | -3.38981 | 14708 ft | 347 kts | 96° |
| 2026-05-07 19:54 | 53.40169 | -3.34946 | 14300 ft | 346 kts | 96° |
| 2026-05-07 19:55 | 53.39992 | -3.30932 | 13887 ft | 345 kts | 96° |
| 2026-05-07 19:55 | 53.39813 | -3.26933 | 13446 ft | 344 kts | 96° |
| 2026-05-07 19:55 | 53.39632 | -3.22949 | 13007 ft | 342 kts | 96° |
| 2026-05-07 19:55 | 53.39451 | -3.18996 | 12589 ft | 340 kts | 96° |
| 2026-05-07 19:56 | 53.39324 | -3.15056 | 12167 ft | 339 kts | 89° |
| 2026-05-07 19:56 | 53.39903 | -3.11274 | 11789 ft | 332 kts | 66° |
| 2026-05-07 19:56 | 53.40990 | -3.07925 | 11394 ft | 323 kts | 61° |
| 2026-05-07 19:56 | 53.42127 | -3.04727 | 11004 ft | 315 kts | 61° |
| 2026-05-07 19:57 | 53.43240 | -3.01624 | 10635 ft | 307 kts | 61° |
| 2026-05-07 19:57 | 53.44322 | -2.98582 | 10273 ft | 301 kts | 62° |
| 2026-05-07 19:57 | 53.45374 | -2.95594 | 9913 ft | 294 kts | 62° |
| 2026-05-07 19:57 | 53.46399 | -2.92658 | 9532 ft | 292 kts | 62° |
| 2026-05-07 19:58 | 53.47421 | -2.89714 | 9184 ft | 292 kts | 62° |
| 2026-05-07 19:58 | 53.48440 | -2.86752 | 8830 ft | 293 kts | 62° |
| 2026-05-07 19:58 | 53.49452 | -2.83783 | 8476 ft | 293 kts | 63° |
| 2026-05-07 19:58 | 53.50461 | -2.80801 | 8128 ft | 294 kts | 63° |
| 2026-05-07 19:59 | 53.51469 | -2.77803 | 7774 ft | 295 kts | 63° |
| 2026-05-07 19:59 | 53.52471 | -2.74807 | 7484 ft | 293 kts | 63° |
| 2026-05-07 19:59 | 53.53461 | -2.71835 | 7224 ft | 290 kts | 63° |
| 2026-05-07 19:59 | 53.54437 | -2.68893 | 7060 ft | 284 kts | 63° |
| 2026-05-07 20:00 | 53.55389 | -2.66019 | 7024 ft | 279 kts | 63° |
| 2026-05-07 20:00 | 53.56324 | -2.63188 | 7029 ft | 277 kts | 63° |
| 2026-05-07 20:00 | 53.57266 | -2.60341 | 7039 ft | 280 kts | 63° |
| 2026-05-07 20:00 | 53.58031 | -2.57332 | 7020 ft | 279 kts | 75° |
| 2026-05-07 20:01 | 53.58588 | -2.54223 | 7020 ft | 277 kts | 75° |
| 2026-05-07 20:01 | 53.59151 | -2.51143 | 7027 ft | 275 kts | 75° |
| 2026-05-07 20:01 | 53.59713 | -2.48078 | 7020 ft | 275 kts | 75° |
| 2026-05-07 20:01 | 53.60276 | -2.45006 | 7017 ft | 274 kts | 75° |
| 2026-05-07 20:02 | 53.60836 | -2.41947 | 7020 ft | 274 kts | 75° |
| 2026-05-07 20:02 | 53.61398 | -2.38882 | 7026 ft | 274 kts | 75° |
| 2026-05-07 20:02 | 53.61958 | -2.35815 | 7024 ft | 275 kts | 75° |
| 2026-05-07 20:02 | 53.62526 | -2.32706 | 6905 ft | 279 kts | 75° |
| 2026-05-07 20:03 | 53.63096 | -2.29581 | 6780 ft | 280 kts | 75° |
| 2026-05-07 20:03 | 53.63671 | -2.26431 | 6528 ft | 280 kts | 76° |
| 2026-05-07 20:03 | 53.63880 | -2.23264 | 6244 ft | 273 kts | 101° |
| 2026-05-07 20:03 | 53.63250 | -2.20360 | 6029 ft | 259 kts | 124° |
| 2026-05-07 20:04 | 53.62305 | -2.17903 | 5883 ft | 243 kts | 131° |
| 2026-05-07 20:04 | 53.61076 | -2.16034 | 5761 ft | 231 kts | 148° |
| 2026-05-07 20:04 | 53.59794 | -2.14465 | 5545 ft | 230 kts | 147° |
| 2026-05-07 20:04 | 53.58516 | -2.12868 | 5344 ft | 228 kts | 146° |
| 2026-05-07 20:05 | 53.57260 | -2.11263 | 5152 ft | 226 kts | 146° |
| 2026-05-07 20:05 | 53.56016 | -2.09649 | 4926 ft | 226 kts | 145° |
| 2026-05-07 20:05 | 53.54778 | -2.08020 | 4699 ft | 224 kts | 145° |
| 2026-05-07 20:05 | 53.53560 | -2.06407 | 4448 ft | 222 kts | 144° |
| 2026-05-07 20:06 | 53.52359 | -2.04813 | 4179 ft | 218 kts | 144° |
| 2026-05-07 20:06 | 53.51185 | -2.03255 | 3909 ft | 213 kts | 144° |
| 2026-05-07 20:06 | 53.50026 | -2.01766 | 3634 ft | 206 kts | 152° |
| 2026-05-07 20:06 | 53.48691 | -2.01349 | 3540 ft | 198 kts | 193° |
| 2026-05-07 20:07 | 53.47582 | -2.02661 | 3552 ft | 199 kts | 227° |
| 2026-05-07 20:07 | 53.46680 | -2.04412 | 3483 ft | 194 kts | 225° |
| 2026-05-07 20:07 | 53.45821 | -2.06067 | 3308 ft | 189 kts | 226° |
| 2026-05-07 20:07 | 53.44987 | -2.07746 | 3060 ft | 187 kts | 227° |
| 2026-05-07 20:08 | 53.44173 | -2.09415 | 2816 ft | 184 kts | 228° |
| 2026-05-07 20:08 | 53.43367 | -2.11070 | 2570 ft | 181 kts | 228° |
| 2026-05-07 20:08 | 53.42575 | -2.12696 | 2328 ft | 178 kts | 228° |
| 2026-05-07 20:08 | 53.41796 | -2.14297 | 2075 ft | 176 kts | 227° |
| 2026-05-07 20:09 | 53.41031 | -2.15868 | 1841 ft | 171 kts | 227° |
| 2026-05-07 20:09 | 53.40287 | -2.17397 | 1592 ft | 167 kts | 227° |
| 2026-05-07 20:09 | 53.39572 | -2.18870 | 1363 ft | 157 kts | 227° |
| 2026-05-07 20:10 | 53.38284 | -2.21507 | 938 ft | 143 kts | 228° |
| 2026-05-07 20:10 | 53.37656 | -2.22785 | 771 ft | 142 kts | 228° |
| 2026-05-07 20:10 | 53.37026 | -2.24088 | 578 ft | 145 kts | 229° |
| 2026-05-07 20:10 | 53.36381 | -2.25409 | 385 ft | 148 kts | 230° |
| 2026-05-07 20:11 | 53.35745 | -2.26730 | 269 ft | 134 kts | 230° |
| 2026-05-07 20:11 | 53.35301 | -2.27645 | 239 ft | 66 kts | 231° |
| 2026-05-07 20:11 | 53.35095 | -2.28070 | 233 ft | 30 kts | 231° |
| 2026-05-07 20:11 | 53.34992 | -2.28322 | 230 ft | 25 kts | 246° |
| 2026-05-07 20:12 | 53.34948 | -2.28590 | 230 ft | 23 kts | 261° |
| 2026-05-07 20:12 | 53.34944 | -2.28701 | 227 ft | 7 kts | 291° |
| 2026-05-07 20:12 | 53.34980 | -2.28748 | 227 ft | 7 kts | 341° |
| 2026-05-07 20:12 | 53.35025 | -2.28722 | 228 ft | 7 kts | 45° |
| 2026-05-07 20:13 | 53.35058 | -2.28662 | 228 ft | 7 kts | 50° |
| 2026-05-07 20:13 | 53.35088 | -2.28599 | 228 ft | 7 kts | 50° |
| 2026-05-07 20:13 | 53.35129 | -2.28516 | 226 ft | 12 kts | 51° |
| 2026-05-07 20:13 | 53.35184 | -2.28401 | 228 ft | 13 kts | 52° |
| 2026-05-07 20:14 | 53.35239 | -2.28286 | 231 ft | 13 kts | 50° |
| 2026-05-07 20:14 | 53.35299 | -2.28175 | 232 ft | 13 kts | 45° |
| 2026-05-07 20:14 | 53.35365 | -2.28069 | 237 ft | 15 kts | 44° |
| 2026-05-07 20:14 | 53.35438 | -2.27951 | 237 ft | 14 kts | 44° |
| 2026-05-07 20:15 | 53.35509 | -2.27836 | 238 ft | 14 kts | 44° |
| 2026-05-07 20:15 | 53.35579 | -2.27721 | 240 ft | 14 kts | 44° |
| 2026-05-07 20:15 | 53.35645 | -2.27614 | 244 ft | 13 kts | 46° |
| 2026-05-07 20:15 | 53.35702 | -2.27499 | 251 ft | 13 kts | 51° |
| 2026-05-07 20:16 | 53.35756 | -2.27386 | 254 ft | 12 kts | 51° |
| 2026-05-07 20:16 | 53.35810 | -2.27279 | 254 ft | 11 kts | 50° |
| 2026-05-07 20:16 | 53.35808 | -2.27171 | 254 ft | 10 kts | 125° |
| 2026-05-07 20:16 | 53.35801 | -2.27084 | 254 ft | 8 kts | 63° |
| 2026-05-07 20:17 | 53.35826 | -2.27009 | 255 ft | 7 kts | 61° |
| 2026-05-07 20:17 | 53.35853 | -2.26939 | 255 ft | 7 kts | 54° |
| 2026-05-07 20:17 | 53.35882 | -2.26876 | 255 ft | 7 kts | 51° |
| 2026-05-07 20:17 | 53.35906 | -2.26840 | 255 ft | 3 kts | 13° |
| 2026-05-07 20:18 | 53.35919 | -2.26858 | 255 ft | 2 kts | 295° |
| 2026-05-07 20:18 | 53.35920 | -2.26886 | 254 ft | 2 kts | 271° |
| 2026-05-07 20:18 | 53.35921 | -2.26912 | 254 ft | 2 kts | 275° |
| 2026-05-07 20:18 | 53.35922 | -2.26937 | 254 ft | 2 kts | 275° |
| 2026-05-07 20:19 | 53.35924 | -2.26967 | 254 ft | 2 kts | 275° |
| 2026-05-07 20:19 | 53.35924 | -2.26976 | 254 ft | 1 kts | 275° |
| 2026-05-07 20:19 | 53.35924 | -2.26982 | 254 ft | 0 kts | 275° |
| 2026-05-07 20:19 | 53.35924 | -2.26983 | 254 ft | 0 kts | 275° |
| 2026-05-07 20:20 | 53.35924 | -2.26984 | 254 ft | 0 kts | 275° |
| 2026-05-07 20:20 | 53.35924 | -2.26985 | 254 ft | 0 kts | 275° |